Pennington Gap, Virginia
Current Conditions -  °F | °C
As of 8:55 AM on Thursday 23 Oct 2014 (Local Time) from K0VG Reporting Station
Overcast Overcast  
Wind Chill: 46°   Ceiling: 2700
Heat Index: 46°   Visibility: 10mi
Dew Point: 39°   Wind: 0mph
Humidity: 76%   Direction: NA
Pressure: 30.25"   Gusts: NA
Location:  36.76°N, 83.03°W
Report Text: K0VG 231255Z AUTO 00000KT 10SM OVC027 08/04 A3025 RMK AO2
Loading
Personal Weather Stations






























Interactive Weather Map
Tropical Storm Tracking
New forecast layout! Learn more

10-Day Weather Forecast

Advertisements
Track Severe Weather on mobile